sensor_id;sensor_type;location;lat;lon;timestamp;P1;durP1;ratioP1;P2;durP2;ratioP2
66575;SDS011;53428;47.686;16.584;2022-12-07T00:04:35;14.07;;;9.93;;
66575;SDS011;53428;47.686;16.584;2022-12-07T00:09:34;23.90;;;12.77;;
66575;SDS011;53428;47.686;16.584;2022-12-07T00:14:34;19.90;;;11.18;;
66575;SDS011;53428;47.686;16.584;2022-12-07T00:19:33;17.73;;;11.40;;
66575;SDS011;53428;47.686;16.584;2022-12-07T00:24:32;19.75;;;12.93;;
66575;SDS011;53428;47.686;16.584;2022-12-07T00:29:31;19.10;;;11.55;;
66575;SDS011;53428;47.686;16.584;2022-12-07T00:34:31;18.90;;;11.10;;
66575;SDS011;53428;47.686;16.584;2022-12-07T00:39:30;21.00;;;12.35;;
66575;SDS011;53428;47.686;16.584;2022-12-07T00:44:29;22.33;;;10.90;;
66575;SDS011;53428;47.686;16.584;2022-12-07T00:49:29;16.35;;;10.50;;
66575;SDS011;53428;47.686;16.584;2022-12-07T00:54:28;17.67;;;10.82;;
66575;SDS011;53428;47.686;16.584;2022-12-07T00:59:27;21.10;;;10.80;;
66575;SDS011;53428;47.686;16.584;2022-12-07T01:04:27;16.50;;;9.68;;
66575;SDS011;53428;47.686;16.584;2022-12-07T01:09:26;14.40;;;8.68;;
66575;SDS011;53428;47.686;16.584;2022-12-07T01:14:26;17.75;;;9.95;;
66575;SDS011;53428;47.686;16.584;2022-12-07T01:19:25;14.75;;;9.68;;
66575;SDS011;53428;47.686;16.584;2022-12-07T01:24:24;14.38;;;9.07;;
66575;SDS011;53428;47.686;16.584;2022-12-07T01:29:24;16.50;;;9.93;;
66575;SDS011;53428;47.686;16.584;2022-12-07T01:34:23;16.27;;;9.25;;
66575;SDS011;53428;47.686;16.584;2022-12-07T01:39:23;18.45;;;9.88;;
66575;SDS011;53428;47.686;16.584;2022-12-07T01:49:30;13.38;;;9.75;;
66575;SDS011;53428;47.686;16.584;2022-12-07T01:54:47;14.82;;;8.90;;
66575;SDS011;53428;47.686;16.584;2022-12-07T02:04:51;13.45;;;9.27;;
66575;SDS011;53428;47.686;16.584;2022-12-07T02:09:53;19.30;;;10.95;;
66575;SDS011;53428;47.686;16.584;2022-12-07T02:14:52;14.85;;;9.93;;
66575;SDS011;53428;47.686;16.584;2022-12-07T02:30:21;15.30;;;9.07;;
66575;SDS011;53428;47.686;16.584;2022-12-07T02:35:42;22.25;;;9.98;;
66575;SDS011;53428;47.686;16.584;2022-12-07T02:40:53;14.73;;;10.25;;
66575;SDS011;53428;47.686;16.584;2022-12-07T02:46:30;17.05;;;10.38;;
66575;SDS011;53428;47.686;16.584;2022-12-07T02:51:24;17.02;;;10.45;;
66575;SDS011;53428;47.686;16.584;2022-12-07T03:07:04;15.18;;;9.40;;
66575;SDS011;53428;47.686;16.584;2022-12-07T03:12:12;17.77;;;11.82;;
66575;SDS011;53428;47.686;16.584;2022-12-07T03:17:18;17.27;;;10.20;;
66575;SDS011;53428;47.686;16.584;2022-12-07T03:22:22;17.15;;;9.30;;
66575;SDS011;53428;47.686;16.584;2022-12-07T03:27:23;18.27;;;9.02;;
66575;SDS011;53428;47.686;16.584;2022-12-07T03:32:30;14.20;;;8.63;;
66575;SDS011;53428;47.686;16.584;2022-12-07T03:42:31;13.68;;;8.63;;
66575;SDS011;53428;47.686;16.584;2022-12-07T03:47:37;14.80;;;8.65;;
66575;SDS011;53428;47.686;16.584;2022-12-07T03:52:46;15.25;;;8.90;;
66575;SDS011;53428;47.686;16.584;2022-12-07T03:57:53;13.32;;;8.52;;
66575;SDS011;53428;47.686;16.584;2022-12-07T04:02:57;14.60;;;9.35;;
66575;SDS011;53428;47.686;16.584;2022-12-07T04:07:57;13.35;;;8.07;;
66575;SDS011;53428;47.686;16.584;2022-12-07T04:12:56;14.07;;;8.82;;
66575;SDS011;53428;47.686;16.584;2022-12-07T04:17:55;13.88;;;8.27;;
66575;SDS011;53428;47.686;16.584;2022-12-07T04:22:54;14.88;;;9.27;;
66575;SDS011;53428;47.686;16.584;2022-12-07T04:27:54;16.73;;;8.32;;
66575;SDS011;53428;47.686;16.584;2022-12-07T04:32:53;12.70;;;8.85;;
66575;SDS011;53428;47.686;16.584;2022-12-07T04:37:53;11.88;;;7.57;;
66575;SDS011;53428;47.686;16.584;2022-12-07T04:42:52;14.07;;;8.90;;
66575;SDS011;53428;47.686;16.584;2022-12-07T04:47:51;15.85;;;9.43;;
66575;SDS011;53428;47.686;16.584;2022-12-07T04:52:51;15.15;;;7.43;;
66575;SDS011;53428;47.686;16.584;2022-12-07T04:57:50;10.18;;;8.23;;
66575;SDS011;53428;47.686;16.584;2022-12-07T05:02:49;17.83;;;9.55;;
66575;SDS011;53428;47.686;16.584;2022-12-07T05:07:48;13.45;;;7.80;;
66575;SDS011;53428;47.686;16.584;2022-12-07T05:12:48;13.88;;;8.15;;
66575;SDS011;53428;47.686;16.584;2022-12-07T05:17:47;12.05;;;8.02;;
66575;SDS011;53428;47.686;16.584;2022-12-07T05:22:46;14.50;;;8.80;;
66575;SDS011;53428;47.686;16.584;2022-12-07T05:27:46;25.02;;;12.63;;
66575;SDS011;53428;47.686;16.584;2022-12-07T05:32:46;23.48;;;12.65;;
66575;SDS011;53428;47.686;16.584;2022-12-07T05:37:45;19.33;;;9.75;;
66575;SDS011;53428;47.686;16.584;2022-12-07T05:42:45;20.52;;;11.93;;
66575;SDS011;53428;47.686;16.584;2022-12-07T05:47:44;30.25;;;15.80;;
66575;SDS011;53428;47.686;16.584;2022-12-07T05:52:43;36.67;;;19.98;;
66575;SDS011;53428;47.686;16.584;2022-12-07T05:57:42;39.83;;;16.35;;
66575;SDS011;53428;47.686;16.584;2022-12-07T06:03:02;34.80;;;16.20;;
66575;SDS011;53428;47.686;16.584;2022-12-07T06:08:01;27.75;;;17.77;;
66575;SDS011;53428;47.686;16.584;2022-12-07T06:13:00;20.90;;;12.48;;
66575;SDS011;53428;47.686;16.584;2022-12-07T06:18:00;19.48;;;10.20;;
66575;SDS011;53428;47.686;16.584;2022-12-07T06:22:59;23.10;;;10.80;;
66575;SDS011;53428;47.686;16.584;2022-12-07T06:27:58;20.98;;;13.18;;
66575;SDS011;53428;47.686;16.584;2022-12-07T06:32:58;27.77;;;15.88;;
66575;SDS011;53428;47.686;16.584;2022-12-07T06:37:57;34.30;;;18.50;;
66575;SDS011;53428;47.686;16.584;2022-12-07T06:42:56;32.92;;;16.80;;
66575;SDS011;53428;47.686;16.584;2022-12-07T06:47:56;27.30;;;14.80;;
66575;SDS011;53428;47.686;16.584;2022-12-07T06:52:55;28.52;;;15.27;;
66575;SDS011;53428;47.686;16.584;2022-12-07T06:57:55;25.08;;;13.15;;
66575;SDS011;53428;47.686;16.584;2022-12-07T07:02:54;41.42;;;19.98;;
66575;SDS011;53428;47.686;16.584;2022-12-07T07:07:53;29.05;;;16.25;;
66575;SDS011;53428;47.686;16.584;2022-12-07T07:12:53;23.48;;;12.23;;
66575;SDS011;53428;47.686;16.584;2022-12-07T07:17:52;21.58;;;10.95;;
66575;SDS011;53428;47.686;16.584;2022-12-07T07:22:54;16.67;;;11.00;;
66575;SDS011;53428;47.686;16.584;2022-12-07T07:27:55;27.92;;;13.73;;
66575;SDS011;53428;47.686;16.584;2022-12-07T07:32:58;22.60;;;11.88;;
66575;SDS011;53428;47.686;16.584;2022-12-07T07:37:58;21.00;;;12.63;;
66575;SDS011;53428;47.686;16.584;2022-12-07T07:42:57;21.13;;;11.80;;
66575;SDS011;53428;47.686;16.584;2022-12-07T07:47:57;21.73;;;12.50;;
66575;SDS011;53428;47.686;16.584;2022-12-07T07:52:57;24.67;;;14.73;;
66575;SDS011;53428;47.686;16.584;2022-12-07T07:57:56;27.08;;;15.40;;
66575;SDS011;53428;47.686;16.584;2022-12-07T08:02:56;25.23;;;14.50;;
66575;SDS011;53428;47.686;16.584;2022-12-07T08:07:57;31.23;;;14.35;;
66575;SDS011;53428;47.686;16.584;2022-12-07T08:12:56;24.65;;;13.75;;
66575;SDS011;53428;47.686;16.584;2022-12-07T08:18:12;25.77;;;16.15;;
66575;SDS011;53428;47.686;16.584;2022-12-07T08:23:12;23.63;;;15.07;;
66575;SDS011;53428;47.686;16.584;2022-12-07T08:28:16;23.02;;;11.43;;
66575;SDS011;53428;47.686;16.584;2022-12-07T08:33:15;16.38;;;11.07;;
66575;SDS011;53428;47.686;16.584;2022-12-07T08:38:15;19.05;;;10.95;;
66575;SDS011;53428;47.686;16.584;2022-12-07T08:43:14;18.00;;;10.57;;
66575;SDS011;53428;47.686;16.584;2022-12-07T08:48:13;11.55;;;8.20;;
66575;SDS011;53428;47.686;16.584;2022-12-07T08:53:16;13.02;;;9.18;;
66575;SDS011;53428;47.686;16.584;2022-12-07T08:58:16;14.50;;;8.98;;
66575;SDS011;53428;47.686;16.584;2022-12-07T09:03:15;11.15;;;7.13;;
66575;SDS011;53428;47.686;16.584;2022-12-07T09:08:15;12.95;;;6.22;;
66575;SDS011;53428;47.686;16.584;2022-12-07T09:13:15;12.50;;;8.25;;
66575;SDS011;53428;47.686;16.584;2022-12-07T09:18:14;9.75;;;6.72;;
66575;SDS011;53428;47.686;16.584;2022-12-07T09:23:14;12.15;;;6.90;;
66575;SDS011;53428;47.686;16.584;2022-12-07T09:28:13;12.07;;;7.38;;
66575;SDS011;53428;47.686;16.584;2022-12-07T09:33:12;8.13;;;6.07;;
66575;SDS011;53428;47.686;16.584;2022-12-07T09:38:12;10.45;;;6.55;;
66575;SDS011;53428;47.686;16.584;2022-12-07T09:43:16;8.05;;;5.55;;
66575;SDS011;53428;47.686;16.584;2022-12-07T09:48:20;11.88;;;8.88;;
66575;SDS011;53428;47.686;16.584;2022-12-07T09:53:33;14.68;;;6.53;;
66575;SDS011;53428;47.686;16.584;2022-12-07T09:58:34;11.57;;;7.35;;
66575;SDS011;53428;47.686;16.584;2022-12-07T10:03:37;13.82;;;7.03;;
66575;SDS011;53428;47.686;16.584;2022-12-07T10:08:39;13.70;;;7.40;;
66575;SDS011;53428;47.686;16.584;2022-12-07T10:13:41;18.58;;;9.20;;
66575;SDS011;53428;47.686;16.584;2022-12-07T10:18:44;19.23;;;8.95;;
66575;SDS011;53428;47.686;16.584;2022-12-07T10:24:02;13.93;;;7.63;;
66575;SDS011;53428;47.686;16.584;2022-12-07T10:29:50;8.63;;;6.35;;
66575;SDS011;53428;47.686;16.584;2022-12-07T10:34:34;9.75;;;6.55;;
66575;SDS011;53428;47.686;16.584;2022-12-07T10:39:48;11.55;;;8.40;;
66575;SDS011;53428;47.686;16.584;2022-12-07T10:44:50;21.83;;;8.95;;
66575;SDS011;53428;47.686;16.584;2022-12-07T11:12:09;9.05;;;5.22;;
66575;SDS011;53428;47.686;16.584;2022-12-07T11:28:22;5.88;;;4.28;;
66575;SDS011;53428;47.686;16.584;2022-12-07T11:33:33;8.55;;;5.70;;
66575;SDS011;53428;47.686;16.584;2022-12-07T11:43:53;5.63;;;3.97;;
66575;SDS011;53428;47.686;16.584;2022-12-07T11:49:20;6.97;;;4.13;;
66575;SDS011;53428;47.686;16.584;2022-12-07T11:54:27;13.98;;;4.57;;
66575;SDS011;53428;47.686;16.584;2022-12-07T11:59:36;8.20;;;4.18;;
66575;SDS011;53428;47.686;16.584;2022-12-07T12:10:02;8.30;;;4.38;;
66575;SDS011;53428;47.686;16.584;2022-12-07T12:20:36;8.40;;;4.70;;
66575;SDS011;53428;47.686;16.584;2022-12-07T12:25:41;8.70;;;4.10;;
66575;SDS011;53428;47.686;16.584;2022-12-07T12:30:46;7.53;;;4.40;;
66575;SDS011;53428;47.686;16.584;2022-12-07T12:46:57;7.95;;;4.30;;
66575;SDS011;53428;47.686;16.584;2022-12-07T12:52:48;8.68;;;4.90;;
66575;SDS011;53428;47.686;16.584;2022-12-07T12:57:29;11.10;;;5.30;;
66575;SDS011;53428;47.686;16.584;2022-12-07T13:02:37;8.02;;;4.28;;
66575;SDS011;53428;47.686;16.584;2022-12-07T13:12:43;6.32;;;3.95;;
66575;SDS011;53428;47.686;16.584;2022-12-07T13:22:52;9.35;;;6.82;;
66575;SDS011;53428;47.686;16.584;2022-12-07T13:28:18;14.40;;;6.72;;
66575;SDS011;53428;47.686;16.584;2022-12-07T13:33:17;7.78;;;5.68;;
66575;SDS011;53428;47.686;16.584;2022-12-07T13:38:22;6.18;;;5.03;;
66575;SDS011;53428;47.686;16.584;2022-12-07T13:43:25;9.40;;;4.88;;
66575;SDS011;53428;47.686;16.584;2022-12-07T13:48:58;7.10;;;5.38;;
66575;SDS011;53428;47.686;16.584;2022-12-07T13:54:00;9.52;;;6.75;;
66575;SDS011;53428;47.686;16.584;2022-12-07T14:09:36;11.60;;;7.47;;
66575;SDS011;53428;47.686;16.584;2022-12-07T14:14:36;25.92;;;14.98;;
66575;SDS011;53428;47.686;16.584;2022-12-07T14:19:43;17.45;;;9.90;;
66575;SDS011;53428;47.686;16.584;2022-12-07T14:30:15;24.33;;;15.02;;
66575;SDS011;53428;47.686;16.584;2022-12-07T14:35:17;36.45;;;15.95;;
66575;SDS011;53428;47.686;16.584;2022-12-07T14:40:18;38.05;;;21.88;;
66575;SDS011;53428;47.686;16.584;2022-12-07T14:45:21;35.80;;;18.48;;
66575;SDS011;53428;47.686;16.584;2022-12-07T14:50:21;35.17;;;17.83;;
66575;SDS011;53428;47.686;16.584;2022-12-07T14:55:24;36.30;;;18.85;;
66575;SDS011;53428;47.686;16.584;2022-12-07T15:00:26;37.50;;;19.70;;
66575;SDS011;53428;47.686;16.584;2022-12-07T15:05:27;45.97;;;21.52;;
66575;SDS011;53428;47.686;16.584;2022-12-07T15:10:27;43.88;;;23.77;;
66575;SDS011;53428;47.686;16.584;2022-12-07T15:20:29;42.08;;;19.45;;
66575;SDS011;53428;47.686;16.584;2022-12-07T15:25:28;54.90;;;26.48;;
66575;SDS011;53428;47.686;16.584;2022-12-07T15:30:27;51.20;;;26.85;;
66575;SDS011;53428;47.686;16.584;2022-12-07T15:35:27;49.47;;;25.40;;
66575;SDS011;53428;47.686;16.584;2022-12-07T15:40:26;51.22;;;26.92;;
66575;SDS011;53428;47.686;16.584;2022-12-07T15:45:25;66.03;;;28.67;;
66575;SDS011;53428;47.686;16.584;2022-12-07T15:50:25;51.47;;;28.60;;
66575;SDS011;53428;47.686;16.584;2022-12-07T15:55:24;60.40;;;31.10;;
66575;SDS011;53428;47.686;16.584;2022-12-07T16:00:23;89.68;;;40.65;;
66575;SDS011;53428;47.686;16.584;2022-12-07T16:05:22;74.18;;;35.17;;
66575;SDS011;53428;47.686;16.584;2022-12-07T16:10:22;79.38;;;34.78;;
66575;SDS011;53428;47.686;16.584;2022-12-07T16:15:21;90.45;;;39.42;;
66575;SDS011;53428;47.686;16.584;2022-12-07T16:20:20;110.35;;;49.45;;
66575;SDS011;53428;47.686;16.584;2022-12-07T16:25:19;116.05;;;49.33;;
66575;SDS011;53428;47.686;16.584;2022-12-07T16:30:18;107.93;;;46.95;;
66575;SDS011;53428;47.686;16.584;2022-12-07T16:35:22;75.28;;;34.92;;
66575;SDS011;53428;47.686;16.584;2022-12-07T16:40:21;75.22;;;30.27;;
66575;SDS011;53428;47.686;16.584;2022-12-07T16:45:23;108.70;;;39.55;;
66575;SDS011;53428;47.686;16.584;2022-12-07T16:50:23;82.60;;;35.08;;
66575;SDS011;53428;47.686;16.584;2022-12-07T16:55:23;88.82;;;38.15;;
66575;SDS011;53428;47.686;16.584;2022-12-07T17:00:22;88.78;;;37.35;;
66575;SDS011;53428;47.686;16.584;2022-12-07T17:05:21;98.35;;;35.67;;
66575;SDS011;53428;47.686;16.584;2022-12-07T17:10:20;181.15;;;75.22;;
66575;SDS011;53428;47.686;16.584;2022-12-07T17:15:21;116.90;;;52.13;;
66575;SDS011;53428;47.686;16.584;2022-12-07T17:20:21;89.15;;;42.35;;
66575;SDS011;53428;47.686;16.584;2022-12-07T17:25:21;67.43;;;34.90;;
66575;SDS011;53428;47.686;16.584;2022-12-07T17:30:20;61.70;;;32.47;;
66575;SDS011;53428;47.686;16.584;2022-12-07T17:35:19;61.25;;;29.27;;
66575;SDS011;53428;47.686;16.584;2022-12-07T17:40:19;56.92;;;30.98;;
66575;SDS011;53428;47.686;16.584;2022-12-07T17:45:18;62.63;;;32.42;;
66575;SDS011;53428;47.686;16.584;2022-12-07T17:50:17;47.72;;;24.65;;
66575;SDS011;53428;47.686;16.584;2022-12-07T17:55:37;41.05;;;21.50;;
66575;SDS011;53428;47.686;16.584;2022-12-07T18:00:37;37.92;;;16.73;;
66575;SDS011;53428;47.686;16.584;2022-12-07T18:05:37;32.15;;;17.65;;
66575;SDS011;53428;47.686;16.584;2022-12-07T18:10:37;50.75;;;21.50;;
66575;SDS011;53428;47.686;16.584;2022-12-07T18:15:36;42.22;;;24.35;;
66575;SDS011;53428;47.686;16.584;2022-12-07T18:20:36;41.63;;;20.85;;
66575;SDS011;53428;47.686;16.584;2022-12-07T18:25:35;87.72;;;46.05;;
66575;SDS011;53428;47.686;16.584;2022-12-07T18:30:34;57.38;;;27.55;;
66575;SDS011;53428;47.686;16.584;2022-12-07T18:35:34;57.35;;;28.60;;
66575;SDS011;53428;47.686;16.584;2022-12-07T18:40:38;50.47;;;27.70;;
66575;SDS011;53428;47.686;16.584;2022-12-07T18:45:39;55.95;;;30.58;;
66575;SDS011;53428;47.686;16.584;2022-12-07T18:50:41;53.30;;;29.27;;
66575;SDS011;53428;47.686;16.584;2022-12-07T18:55:41;69.00;;;33.80;;
66575;SDS011;53428;47.686;16.584;2022-12-07T19:00:41;65.05;;;34.10;;
66575;SDS011;53428;47.686;16.584;2022-12-07T19:05:41;119.00;;;56.92;;
66575;SDS011;53428;47.686;16.584;2022-12-07T19:10:40;74.53;;;34.03;;
66575;SDS011;53428;47.686;16.584;2022-12-07T19:15:41;108.32;;;45.40;;
66575;SDS011;53428;47.686;16.584;2022-12-07T19:20:41;85.63;;;39.72;;
66575;SDS011;53428;47.686;16.584;2022-12-07T19:25:41;56.00;;;29.10;;
66575;SDS011;53428;47.686;16.584;2022-12-07T19:30:40;101.97;;;48.08;;
66575;SDS011;53428;47.686;16.584;2022-12-07T19:35:40;72.15;;;36.03;;
66575;SDS011;53428;47.686;16.584;2022-12-07T19:40:40;58.75;;;28.67;;
66575;SDS011;53428;47.686;16.584;2022-12-07T19:45:39;65.38;;;27.83;;
66575;SDS011;53428;47.686;16.584;2022-12-07T19:50:39;53.65;;;24.23;;
66575;SDS011;53428;47.686;16.584;2022-12-07T19:55:39;53.92;;;27.20;;
66575;SDS011;53428;47.686;16.584;2022-12-07T20:00:41;60.95;;;27.42;;
66575;SDS011;53428;47.686;16.584;2022-12-07T20:05:41;54.13;;;26.42;;
66575;SDS011;53428;47.686;16.584;2022-12-07T20:10:40;47.25;;;25.55;;
66575;SDS011;53428;47.686;16.584;2022-12-07T20:15:40;51.00;;;25.55;;
66575;SDS011;53428;47.686;16.584;2022-12-07T20:20:40;46.13;;;24.90;;
66575;SDS011;53428;47.686;16.584;2022-12-07T20:25:41;41.90;;;18.55;;
66575;SDS011;53428;47.686;16.584;2022-12-07T20:30:48;33.50;;;19.23;;
66575;SDS011;53428;47.686;16.584;2022-12-07T20:35:53;22.88;;;13.77;;
66575;SDS011;53428;47.686;16.584;2022-12-07T20:40:59;29.23;;;14.20;;
66575;SDS011;53428;47.686;16.584;2022-12-07T20:46:00;22.45;;;12.13;;
66575;SDS011;53428;47.686;16.584;2022-12-07T20:51:06;21.17;;;12.88;;
66575;SDS011;53428;47.686;16.584;2022-12-07T20:56:05;23.83;;;13.10;;
66575;SDS011;53428;47.686;16.584;2022-12-07T21:01:05;27.20;;;12.60;;
66575;SDS011;53428;47.686;16.584;2022-12-07T21:06:04;29.05;;;14.30;;
66575;SDS011;53428;47.686;16.584;2022-12-07T21:11:07;74.18;;;37.03;;
66575;SDS011;53428;47.686;16.584;2022-12-07T21:16:07;60.78;;;31.33;;
66575;SDS011;53428;47.686;16.584;2022-12-07T21:21:12;57.40;;;26.38;;
66575;SDS011;53428;47.686;16.584;2022-12-07T21:26:15;47.42;;;25.73;;
66575;SDS011;53428;47.686;16.584;2022-12-07T21:31:19;31.48;;;16.65;;
66575;SDS011;53428;47.686;16.584;2022-12-07T21:36:20;51.15;;;26.00;;
66575;SDS011;53428;47.686;16.584;2022-12-07T21:41:22;45.83;;;22.60;;
66575;SDS011;53428;47.686;16.584;2022-12-07T21:46:22;30.67;;;16.30;;
66575;SDS011;53428;47.686;16.584;2022-12-07T21:51:24;39.53;;;17.38;;
66575;SDS011;53428;47.686;16.584;2022-12-07T21:56:26;31.75;;;17.35;;
66575;SDS011;53428;47.686;16.584;2022-12-07T22:01:26;32.03;;;18.30;;
66575;SDS011;53428;47.686;16.584;2022-12-07T22:06:28;32.72;;;18.88;;
66575;SDS011;53428;47.686;16.584;2022-12-07T22:11:27;37.45;;;16.45;;
66575;SDS011;53428;47.686;16.584;2022-12-07T22:16:26;35.15;;;15.35;;
66575;SDS011;53428;47.686;16.584;2022-12-07T22:21:25;30.27;;;16.17;;
66575;SDS011;53428;47.686;16.584;2022-12-07T22:26:25;25.30;;;13.18;;
66575;SDS011;53428;47.686;16.584;2022-12-07T22:31:25;29.60;;;15.77;;
66575;SDS011;53428;47.686;16.584;2022-12-07T22:36:24;31.58;;;16.38;;
66575;SDS011;53428;47.686;16.584;2022-12-07T22:41:26;24.70;;;14.18;;
66575;SDS011;53428;47.686;16.584;2022-12-07T22:46:28;23.02;;;11.80;;
66575;SDS011;53428;47.686;16.584;2022-12-07T22:51:29;21.10;;;12.00;;
66575;SDS011;53428;47.686;16.584;2022-12-07T22:56:33;15.18;;;9.02;;
66575;SDS011;53428;47.686;16.584;2022-12-07T23:01:34;18.80;;;10.63;;
66575;SDS011;53428;47.686;16.584;2022-12-07T23:06:34;17.35;;;9.77;;
66575;SDS011;53428;47.686;16.584;2022-12-07T23:11:36;17.90;;;9.82;;
66575;SDS011;53428;47.686;16.584;2022-12-07T23:16:55;19.63;;;10.27;;
66575;SDS011;53428;47.686;16.584;2022-12-07T23:21:54;14.82;;;8.43;;
66575;SDS011;53428;47.686;16.584;2022-12-07T23:26:53;9.02;;;5.55;;
66575;SDS011;53428;47.686;16.584;2022-12-07T23:31:53;10.00;;;6.03;;
66575;SDS011;53428;47.686;16.584;2022-12-07T23:36:52;9.27;;;5.03;;
66575;SDS011;53428;47.686;16.584;2022-12-07T23:41:51;9.95;;;6.07;;
66575;SDS011;53428;47.686;16.584;2022-12-07T23:46:51;8.45;;;5.43;;
66575;SDS011;53428;47.686;16.584;2022-12-07T23:51:50;8.02;;;5.65;;
66575;SDS011;53428;47.686;16.584;2022-12-07T23:56:49;7.55;;;5.07;;
